Time;durP1;ratioP1;P1;durP2;ratioP2;P2;SDS_P1;SDS_P2;PMS_P1;PMS_P2;Temp;Humidity;BMP_temperature;BMP_pressure;BME280_temperature;BME280_humidity;BME280_pressure;Samples;Min_cycle;Max_cycle;Signal;HPM_P1;HPM_P2
2022/11/14 00:00:34;;;;;;;22.20;9.27;;;;;;;10.15;70.94;100218.06;6190896;23;20154;-88
2022/11/14 00:03:01;;;;;;;16.93;8.70;;;;;;;10.04;71.19;100216.66;6217528;23;20150;-89
2022/11/14 00:05:26;;;;;;;19.70;7.90;;;;;;;10.01;71.83;100208.94;6217225;23;20509;-89
2022/11/14 00:07:52;;;;;;;24.30;10.57;;;;;;;10.09;71.46;100202.50;6190913;23;20635;-89
2022/11/14 00:10:17;;;;;;;22.63;10.33;;;;;;;10.15;71.34;100197.09;6190952;23;20232;-89
2022/11/14 00:12:43;;;;;;;21.17;9.97;;;;;;;10.21;70.84;100202.16;6191227;23;20161;-89
2022/11/14 00:15:09;;;;;;;19.40;9.73;;;;;;;10.20;71.03;100195.19;6190805;23;20221;-89
2022/11/14 00:17:35;;;;;;;21.63;10.10;;;;;;;10.24;70.75;100199.41;6217075;23;20146;-89
2022/11/14 00:20:00;;;;;;;23.53;10.37;;;;;;;10.22;70.75;100195.97;6217036;23;20620;-89
2022/11/14 00:22:26;;;;;;;20.57;10.23;;;;;;;10.18;70.55;100197.00;6217017;23;20161;-89
2022/11/14 00:24:51;;;;;;;17.83;8.67;;;;;;;10.18;70.16;100198.75;6190662;23;20570;-89
2022/11/14 00:27:17;;;;;;;23.87;10.10;;;;;;;10.12;70.31;100189.34;6190735;23;20212;-89
2022/11/14 00:29:42;;;;;;;23.10;9.63;;;;;;;10.10;70.77;100185.88;6216964;23;20170;-89
2022/11/14 00:32:07;;;;;;;23.20;10.63;;;;;;;10.02;70.59;100177.44;6217227;23;20574;-89
2022/11/14 00:34:33;;;;;;;30.70;11.97;;;;;;;10.03;70.79;100184.41;6216778;23;20586;-89
2022/11/14 00:36:59;;;;;;;21.90;9.13;;;;;;;10.06;70.66;100184.31;6190497;23;20597;-89
2022/11/14 00:39:25;;;;;;;20.20;9.33;;;;;;;10.07;70.29;100177.28;6217238;23;20140;-89
2022/11/14 00:41:50;;;;;;;20.17;9.23;;;;;;;9.99;70.15;100176.66;6217105;23;20149;-89
2022/11/14 00:44:16;;;;;;;22.00;10.07;;;;;;;9.98;69.72;100178.47;6190512;23;20173;-89
2022/11/14 00:46:41;;;;;;;25.07;11.53;;;;;;;9.98;69.48;100180.22;6215585;23;20154;-89
2022/11/14 00:49:07;;;;;;;28.87;10.33;;;;;;;9.92;69.17;100181.28;6216678;23;20172;-89
2022/11/14 00:51:32;;;;;;;22.13;9.27;;;;;;;9.97;68.29;100173.25;6216994;23;20145;-89
2022/11/14 00:53:57;;;;;;;20.47;8.47;;;;;;;9.90;68.37;100177.84;6190451;23;20162;-89
2022/11/14 00:56:23;;;;;;;19.43;8.00;;;;;;;9.81;68.27;100172.91;6190404;23;20196;-89
2022/11/14 00:58:48;;;;;;;19.90;8.60;;;;;;;9.73;68.84;100167.06;6216683;23;20464;-89
2022/11/14 01:01:14;;;;;;;19.50;9.33;;;;;;;9.76;69.06;100164.34;6216460;23;20161;-89
2022/11/14 01:03:39;;;;;;;22.90;9.07;;;;;;;9.77;69.10;100168.69;6216734;23;20154;-89
2022/11/14 01:06:07;;;;;;;20.67;8.97;;;;;;;9.77;69.11;100176.53;6216927;23;20169;-89
2022/11/14 01:08:34;;;;;;;22.20;9.63;;;;;;;9.80;68.85;100171.22;6216584;23;20153;-90
2022/11/14 01:11:00;;;;;;;19.10;8.43;;;;;;;9.78;68.43;100173.88;6216467;23;20445;-90
2022/11/14 01:13:30;;;;;;;22.70;8.77;;;;;;;9.80;68.36;100174.66;6216738;23;20214;-89
2022/11/14 01:15:59;;;;;;;18.40;7.93;;;;;;;9.77;68.09;100174.75;6215183;23;20239;-89
2022/11/14 01:18:25;;;;;;;16.27;8.33;;;;;;;9.71;68.09;100164.50;6216781;23;20153;-89
2022/11/14 01:20:50;;;;;;;16.30;8.17;;;;;;;9.71;67.70;100163.66;6216404;23;20568;-90
2022/11/14 01:23:16;;;;;;;19.87;8.20;;;;;;;9.77;67.24;100156.44;6216388;23;20153;-90
2022/11/14 01:25:42;;;;;;;24.27;8.83;;;;;;;9.83;67.24;100152.75;6216742;23;20203;-90
2022/11/14 01:28:10;;;;;;;21.10;8.47;;;;;;;9.72;67.75;100160.97;6216858;23;20173;-89
2022/11/14 01:30:36;;;;;;;20.40;8.43;;;;;;;9.63;68.48;100163.03;6216321;23;20149;-90
2022/11/14 01:33:02;;;;;;;23.47;9.00;;;;;;;9.57;68.85;100160.59;6216320;23;20215;-90
2022/11/14 01:35:28;;;;;;;22.90;9.37;;;;;;;9.58;68.78;100144.00;6216523;23;20550;-89
2022/11/14 01:37:53;;;;;;;23.47;9.50;;;;;;;9.58;68.98;100149.25;6215063;23;20600;-90
2022/11/14 01:40:19;;;;;;;22.60;8.97;;;;;;;9.55;68.43;100155.44;6216938;23;20149;-89
2022/11/14 01:43:09;;;;;;;25.03;9.93;;;;;;;9.48;68.73;100147.84;6216901;23;20149;-90
2022/11/14 01:46:01;;;;;;;16.77;7.90;;;;;;;9.50;68.46;100146.00;6189995;23;20157;-89
2022/11/14 01:48:29;;;;;;;20.03;8.20;;;;;;;9.49;68.58;100145.16;6216572;23;20136;-90
2022/11/14 01:51:07;;;;;;;21.07;8.67;;;;;;;9.46;68.66;100141.81;6216157;23;20150;-89
2022/11/14 01:53:32;;;;;;;24.47;9.73;;;;;;;9.43;68.56;100134.91;6216483;23;20137;-89
2022/11/14 01:56:02;;;;;;;19.57;8.73;;;;;;;9.41;68.19;100141.09;6189744;23;20192;-89
2022/11/14 01:58:29;;;;;;;24.30;9.37;;;;;;;9.38;68.11;100136.78;6214862;23;20173;-90
2022/11/14 02:00:56;;;;;;;19.23;8.80;;;;;;;9.33;67.98;100138.69;6216042;23;20153;-89
2022/11/14 02:03:22;;;;;;;22.47;8.53;;;;;;;9.28;67.74;100136.22;6215949;23;20177;-89
2022/11/14 02:05:49;;;;;;;20.43;8.50;;;;;;;9.19;66.82;100136.53;6216274;23;20149;-90
2022/11/14 02:08:15;;;;;;;25.27;10.57;;;;;;;9.23;66.84;100145.13;6215936;23;20570;-89
2022/11/14 02:10:41;;;;;;;15.20;7.80;;;;;;;9.22;66.53;100140.81;6215858;23;20146;-90
2022/11/14 02:13:07;;;;;;;24.50;9.33;;;;;;;9.19;66.84;100141.75;6215508;23;20150;-90
2022/11/14 02:15:33;;;;;;;25.03;9.93;;;;;;;9.15;66.77;100134.03;6216040;23;20601;-89
2022/11/14 02:18:00;;;;;;;20.47;8.53;;;;;;;9.13;66.94;100144.56;6189598;23;20156;-89
2022/11/14 02:20:27;;;;;;;23.10;8.33;;;;;;;9.10;67.36;100152.50;6215869;23;20152;-89
2022/11/14 02:22:53;;;;;;;13.00;7.50;;;;;;;9.12;67.39;100148.06;6215815;23;20146;-88
2022/11/14 02:25:19;;;;;;;15.57;7.10;;;;;;;9.07;67.55;100143.88;6216099;23;20147;-89
2022/11/14 02:27:44;;;;;;;16.73;8.03;;;;;;;9.03;67.33;100140.50;6215755;23;20179;-89
2022/11/14 02:30:13;;;;;;;16.10;7.87;;;;;;;8.98;67.50;100145.03;6216074;23;20178;-89
2022/11/14 02:32:39;;;;;;;17.30;8.30;;;;;;;8.97;67.11;100145.91;6215775;23;20176;-89
2022/11/14 02:35:04;;;;;;;19.20;8.50;;;;;;;8.93;67.20;100136.47;6189335;23;20232;-89
2022/11/14 02:37:30;;;;;;;17.00;8.13;;;;;;;8.94;66.59;100140.78;6215400;23;20546;-90
2022/11/14 02:39:55;;;;;;;19.97;7.70;;;;;;;8.92;67.04;100142.59;6215656;23;20153;-90
2022/11/14 02:42:20;;;;;;;18.17;7.87;;;;;;;8.87;66.15;100139.25;6214374;23;20164;-90
2022/11/14 02:44:46;;;;;;;20.43;9.17;;;;;;;8.81;66.44;100128.97;6215638;23;20478;-89
2022/11/14 02:47:11;;;;;;;18.97;8.23;;;;;;;8.84;66.97;100128.88;6215574;23;20217;-89
2022/11/14 02:49:37;;;;;;;20.43;8.63;;;;;;;8.72;66.60;100133.63;6215826;23;20175;-89
2022/11/14 02:52:02;;;;;;;19.10;8.33;;;;;;;8.68;66.82;100129.38;6215484;23;20150;-89
2022/11/14 02:54:28;;;;;;;15.93;8.13;;;;;;;8.69;66.95;100137.19;6216165;23;20160;-89
2022/11/14 02:56:53;;;;;;;12.90;6.20;;;;;;;8.69;67.65;100134.56;6189180;23;20185;-89
2022/11/14 02:59:19;;;;;;;15.63;8.20;;;;;;;8.67;67.58;100127.69;6215441;23;20147;-89
2022/11/14 03:01:44;;;;;;;18.07;7.30;;;;;;;8.64;67.28;100128.63;6215516;23;20515;-90
2022/11/14 03:04:09;;;;;;;14.33;7.97;;;;;;;8.64;67.64;100129.50;6214260;23;20216;-89
2022/11/14 03:06:35;;;;;;;19.00;7.00;;;;;;;8.61;67.53;100123.47;6189135;23;20165;-89
2022/11/14 03:09:00;;;;;;;16.57;7.73;;;;;;;8.60;67.29;100129.59;6215403;23;20145;-89
2022/11/14 03:11:26;;;;;;;19.80;7.40;;;;;;;8.61;67.39;100124.34;6215428;23;20147;-89
2022/11/14 03:13:51;;;;;;;15.90;7.53;;;;;;;8.57;67.45;100129.69;6216017;23;20151;-89
2022/11/14 03:16:17;;;;;;;17.60;7.67;;;;;;;8.52;67.22;100131.56;6215295;23;20684;-89
2022/11/14 03:18:42;;;;;;;13.00;6.53;;;;;;;8.51;67.24;100132.50;6215376;23;20150;-89
2022/11/14 03:21:10;;;;;;;14.80;6.50;;;;;;;8.45;67.45;100130.91;6214152;23;20475;-89
2022/11/14 03:23:35;;;;;;;13.97;6.97;;;;;;;8.45;67.12;100135.25;6215312;23;20578;-89
2022/11/14 03:26:03;;;;;;;17.53;8.83;;;;;;;8.39;67.72;100124.97;6213969;23;20158;-90
2022/11/14 03:28:28;;;;;;;19.97;7.27;;;;;;;8.38;67.57;100131.13;6215566;23;20150;-89
2022/11/14 03:30:54;;;;;;;17.70;8.40;;;;;;;8.36;67.80;100131.13;6214065;23;20303;-89
2022/11/14 03:33:19;;;;;;;15.50;6.27;;;;;;;8.34;68.11;100139.91;6215281;23;20158;-89
2022/11/14 03:35:44;;;;;;;18.50;8.17;;;;;;;8.32;68.17;100139.13;6188925;23;20627;-89
2022/11/14 03:38:10;;;;;;;20.10;7.47;;;;;;;8.35;68.04;100139.03;6215071;23;20587;-89
2022/11/14 03:40:39;;;;;;;20.30;8.07;;;;;;;8.35;67.88;100142.50;6215228;23;20233;-89
2022/11/14 03:43:04;;;;;;;15.87;6.90;;;;;;;8.33;68.16;100135.63;6215544;23;20253;-89
2022/11/14 03:45:30;;;;;;;15.90;6.90;;;;;;;8.34;67.94;100127.72;6189046;23;20507;-89
2022/11/14 03:47:55;;;;;;;16.43;8.43;;;;;;;8.30;67.58;100131.34;6215143;23;20157;-89
2022/11/14 03:50:21;;;;;;;19.30;6.73;;;;;;;8.26;67.54;100136.63;6188944;23;20168;-89
2022/11/14 03:52:49;;;;;;;24.60;8.10;;;;;;;8.26;68.06;100128.78;6215781;23;20152;-88
2022/11/14 03:55:15;;;;;;;14.90;7.20;;;;;;;8.27;68.19;100138.38;6215333;23;20172;-89
2022/11/14 03:57:40;;;;;;;12.60;5.83;;;;;;;8.27;67.33;100135.78;6215431;23;20154;-89
2022/11/14 04:00:07;;;;;;;19.23;7.07;;;;;;;8.24;67.50;100127.97;6215103;23;20220;-89
2022/11/14 04:02:32;;;;;;;15.40;6.13;;;;;;;8.30;67.59;100131.34;6215126;23;20186;-89
2022/11/14 04:04:57;;;;;;;15.23;7.57;;;;;;;8.34;67.54;100143.41;6188944;23;20154;-88
2022/11/14 04:07:23;;;;;;;20.07;7.27;;;;;;;8.36;67.02;100130.31;6188880;23;20250;-88
2022/11/14 04:09:48;;;;;;;18.50;6.20;;;;;;;8.40;67.04;100137.16;6188819;23;20316;-89
2022/11/14 04:12:14;;;;;;;18.77;7.27;;;;;;;8.34;67.64;100138.16;6215072;23;20146;-88
2022/11/14 04:14:39;;;;;;;13.00;6.43;;;;;;;8.29;67.90;100140.06;6188797;23;20241;-88
2022/11/14 04:17:04;;;;;;;15.13;6.87;;;;;;;8.16;68.99;100141.25;6188792;23;20590;-88
2022/11/14 04:19:30;;;;;;;14.57;7.90;;;;;;;8.20;70.22;100144.66;6215015;23;20155;-88
2022/11/14 04:21:55;;;;;;;17.27;7.53;;;;;;;8.31;69.89;100142.63;6215678;23;20535;-88
2022/11/14 04:24:21;;;;;;;15.40;8.07;;;;;;;8.39;69.83;100138.03;6215033;23;20174;-88
2022/11/14 04:26:46;;;;;;;16.50;7.27;;;;;;;8.33;70.35;100141.66;6214994;23;20229;-88
2022/11/14 04:29:11;;;;;;;16.57;7.07;;;;;;;8.31;70.65;100138.25;6214939;23;20562;-88
2022/11/14 04:31:37;;;;;;;19.10;8.63;;;;;;;8.34;71.45;100134.69;6213744;23;20168;-88
2022/11/14 04:34:02;;;;;;;16.53;8.83;;;;;;;8.38;71.67;100131.97;6214921;23;20150;-88
2022/11/14 04:36:27;;;;;;;18.60;8.33;;;;;;;8.48;71.38;100124.72;6215431;23;20652;-89
2022/11/14 04:38:53;;;;;;;20.37;8.73;;;;;;;8.55;71.47;100134.09;6217527;23;20169;-89
2022/11/14 04:41:18;;;;;;;22.57;11.13;;;;;;;8.57;71.37;100132.28;6216693;23;20146;-88
2022/11/14 04:43:44;;;;;;;17.10;8.70;;;;;;;8.56;71.77;100134.06;6217740;23;20537;-88
2022/11/14 04:46:09;;;;;;;18.57;8.57;;;;;;;8.55;71.09;100136.72;6216664;23;20145;-88
2022/11/14 04:48:34;;;;;;;23.93;9.80;;;;;;;8.63;71.43;100139.97;6217359;23;20151;-89
2022/11/14 04:51:00;;;;;;;17.03;8.83;;;;;;;8.61;71.60;100137.41;6217120;23;20165;-89
2022/11/14 04:53:25;;;;;;;15.73;8.37;;;;;;;8.49;71.30;100142.13;6215391;23;20158;-89
2022/11/14 04:55:51;;;;;;;16.80;7.57;;;;;;;8.45;71.99;100135.25;6190257;23;20244;-88
2022/11/14 04:58:16;;;;;;;14.10;6.93;;;;;;;8.46;71.77;100137.81;6216517;23;20156;-88
2022/11/14 05:00:41;;;;;;;13.17;6.63;;;;;;;8.35;71.86;100136.41;6216590;23;20419;-88
2022/11/14 05:03:07;;;;;;;15.67;7.77;;;;;;;8.33;72.61;100143.44;6216530;23;20209;-88
2022/11/14 05:05:33;;;;;;;16.03;7.33;;;;;;;8.41;72.98;100151.94;6217095;23;20150;-88
2022/11/14 05:07:58;;;;;;;13.07;6.83;;;;;;;8.44;72.25;100154.44;6190247;23;20169;-88
2022/11/14 05:10:23;;;;;;;16.67;8.10;;;;;;;8.43;72.69;100147.53;6217188;23;20218;-89
2022/11/14 05:12:52;;;;;;;17.70;7.53;;;;;;;8.47;72.90;100154.34;6216814;23;20151;-89
2022/11/14 05:15:18;;;;;;;15.77;6.50;;;;;;;8.56;72.34;100157.59;6190047;23;20617;-89
2022/11/14 05:17:43;;;;;;;20.57;8.20;;;;;;;8.58;71.93;100157.53;6215342;23;20164;-89
2022/11/14 05:20:09;;;;;;;14.23;7.27;;;;;;;8.57;71.92;100159.28;6216772;23;20205;-89
2022/11/14 05:22:35;;;;;;;11.90;6.07;;;;;;;8.55;70.53;100153.25;6216422;23;20227;-89
2022/11/14 05:25:00;;;;;;;15.70;7.50;;;;;;;8.54;70.39;100163.75;6216290;23;20569;-89
2022/11/14 05:27:25;;;;;;;13.87;6.80;;;;;;;8.58;69.80;100157.53;6190109;23;20190;-89
2022/11/14 05:29:51;;;;;;;14.27;6.87;;;;;;;8.59;69.27;100159.25;6216403;23;20153;-89
2022/11/14 05:32:16;;;;;;;11.83;5.50;;;;;;;8.59;69.74;100161.88;6190463;23;20158;-89
2022/11/14 05:34:42;;;;;;;16.50;6.30;;;;;;;8.59;69.16;100160.09;6216212;23;20178;-89
2022/11/14 05:37:07;;;;;;;23.87;10.30;;;;;;;8.54;69.11;100166.38;6216196;23;20176;-89
2022/11/14 05:39:34;;;;;;;17.93;8.73;;;;;;;8.54;69.18;100169.00;6216177;23;20181;-89
2022/11/14 05:41:59;;;;;;;22.80;11.70;;;;;;;8.53;69.73;100167.25;6216329;23;20150;-90
2022/11/14 05:44:25;;;;;;;30.83;11.83;;;;;;;8.55;69.82;100170.69;6216511;23;20215;-89
2022/11/14 05:46:50;;;;;;;25.93;12.80;;;;;;;8.61;70.35;100170.53;6189986;23;20239;-90
2022/11/14 05:49:15;;;;;;;27.20;13.80;;;;;;;8.63;69.84;100169.56;6189389;23;20166;-90
2022/11/14 05:51:41;;;;;;;23.33;11.27;;;;;;;8.68;70.22;100169.44;6216537;23;20567;-89
2022/11/14 05:54:06;;;;;;;13.27;7.27;;;;;;;8.74;70.93;100173.63;6216528;23;20447;-90
2022/11/14 05:56:32;;;;;;;18.23;8.60;;;;;;;8.85;70.23;100167.22;6215989;23;20200;-89
2022/11/14 05:58:57;;;;;;;22.87;9.27;;;;;;;8.93;70.76;100174.81;6214869;23;20544;-89
2022/11/14 06:01:23;;;;;;;21.37;9.83;;;;;;;8.99;70.62;100170.25;6189895;23;20261;-88
2022/11/14 06:03:48;;;;;;;27.97;12.73;;;;;;;9.02;70.66;100175.41;6189820;23;20160;-89
2022/11/14 06:06:17;;;;;;;19.67;9.17;;;;;;;9.08;70.77;100172.63;6189763;23;20158;-89
2022/11/14 06:08:42;;;;;;;22.63;11.80;;;;;;;9.12;70.75;100170.75;6216611;23;20284;-89
2022/11/14 06:11:11;;;;;;;16.53;7.47;;;;;;;9.20;70.61;100164.38;6190367;23;20189;-89
2022/11/14 06:13:36;;;;;;;14.27;7.23;;;;;;;9.30;70.72;100178.06;6216595;23;20513;-89
2022/11/14 06:16:04;;;;;;;14.60;7.17;;;;;;;9.31;71.03;100163.19;6189700;23;20668;-89
2022/11/14 06:18:31;;;;;;;19.43;9.60;;;;;;;9.32;71.25;100178.00;6189650;23;20490;-89
2022/11/14 06:21:00;;;;;;;17.17;8.60;;;;;;;9.39;71.47;100174.28;6216243;23;20572;-89
2022/11/14 06:23:26;;;;;;;20.23;10.27;;;;;;;9.43;72.09;100165.44;6216262;23;20169;-89
2022/11/14 06:26:04;;;;;;;20.03;9.33;;;;;;;9.43;72.37;100166.31;6216177;23;20149;-89
2022/11/14 06:28:30;;;;;;;26.57;10.20;;;;;;;9.47;72.87;100162.69;6189631;23;20148;-89
2022/11/14 06:31:00;;;;;;;23.27;12.30;;;;;;;9.51;73.14;100164.28;6189509;23;20599;-89
2022/11/14 06:33:32;;;;;;;19.77;9.67;;;;;;;9.64;73.67;100168.22;6189956;23;20168;-89
2022/11/14 06:36:03;;;;;;;23.40;11.37;;;;;;;9.74;73.18;100166.16;6190502;23;20177;-89
2022/11/14 06:38:33;;;;;;;23.77;10.77;;;;;;;9.83;73.44;100160.63;6215621;23;20204;-89
2022/11/14 06:41:08;;;;;;;19.03;8.97;;;;;;;9.94;73.21;100157.63;6189452;23;20494;-89
2022/11/14 06:43:37;;;;;;;16.77;10.30;;;;;;;10.03;73.34;100162.56;6189389;23;20160;-90
2022/11/14 06:46:03;;;;;;;19.07;9.57;;;;;;;10.12;72.86;100167.50;6189765;23;20554;-89
2022/11/14 06:48:29;;;;;;;20.43;9.63;;;;;;;10.19;73.37;100169.03;6215644;23;20228;-89
2022/11/14 06:50:56;;;;;;;20.53;9.83;;;;;;;10.27;72.99;100173.09;6215625;23;20231;-90
2022/11/14 06:53:22;;;;;;;22.07;10.70;;;;;;;10.36;73.02;100167.53;6214389;23;20154;-89
2022/11/14 06:55:56;;;;;;;25.03;10.30;;;;;;;10.44;72.64;100157.63;6215846;23;20237;-90
2022/11/14 06:58:23;;;;;;;26.83;11.73;;;;;;;10.55;72.41;100159.00;6214497;23;20146;-89
2022/11/14 07:00:49;;;;;;;22.00;10.63;;;;;;;10.61;71.81;100161.44;6215451;23;20157;-89
2022/11/14 07:03:14;;;;;;;25.10;10.00;;;;;;;10.67;71.93;100159.41;6214325;23;20170;-90
2022/11/14 07:05:40;;;;;;;26.47;12.00;;;;;;;10.79;72.17;100158.13;6216269;23;20228;-90
2022/11/14 07:08:05;;;;;;;24.93;10.40;;;;;;;10.78;72.10;100154.63;6215490;23;20183;-90
2022/11/14 07:10:31;;;;;;;26.60;12.57;;;;;;;10.83;72.24;100155.31;6189243;23;20326;-90
2022/11/14 07:12:56;;;;;;;21.17;12.07;;;;;;;10.93;72.43;100155.81;6215519;23;20617;-90
2022/11/14 07:15:21;;;;;;;34.13;12.77;;;;;;;11.04;72.47;100158.91;6216020;23;20186;-90
2022/11/14 07:17:47;;;;;;;32.27;15.63;;;;;;;11.17;73.08;100147.00;6215567;23;20150;-90
2022/11/14 07:20:14;;;;;;;34.43;14.33;;;;;;;11.32;72.96;100148.22;6189187;23;20239;-90
2022/11/14 07:22:39;;;;;;;45.47;18.77;;;;;;;11.46;73.49;100149.34;6214583;23;20158;-89
2022/11/14 07:25:05;;;;;;;39.03;16.93;;;;;;;11.56;73.57;100144.56;6189269;23;20172;-90
2022/11/14 07:27:31;;;;;;;31.03;14.53;;;;;;;11.67;74.21;100135.34;6215376;23;20589;-90
2022/11/14 07:29:56;;;;;;;26.43;11.93;;;;;;;11.78;74.75;100134.94;6214292;23;20158;-90
2022/11/14 07:32:22;;;;;;;25.80;11.87;;;;;;;11.90;75.20;100130.94;6215389;23;20170;-90
2022/11/14 07:34:47;;;;;;;24.43;10.47;;;;;;;12.03;74.73;100133.00;6215266;23;20149;-90
2022/11/14 07:37:12;;;;;;;25.30;10.93;;;;;;;12.08;75.58;100138.06;6215201;23;20238;-89
2022/11/14 07:39:38;;;;;;;26.10;11.53;;;;;;;12.16;75.88;100135.94;6189253;23;20146;-90
2022/11/14 07:42:03;;;;;;;27.67;12.23;;;;;;;12.25;75.67;100125.91;6215805;23;20505;-90
2022/11/14 07:44:29;;;;;;;17.63;9.27;;;;;;;12.44;75.10;100131.22;6215398;23;20145;-90
2022/11/14 07:46:54;;;;;;;20.13;10.33;;;;;;;12.52;75.05;100131.72;6215350;23;20250;-90
2022/11/14 07:49:19;;;;;;;33.07;10.23;;;;;;;12.60;74.08;100132.25;6215794;23;20150;-90
2022/11/14 07:51:45;;;;;;;22.87;10.73;;;;;;;12.66;73.60;100131.06;6214218;23;20197;-90
2022/11/14 07:54:10;;;;;;;18.90;9.23;;;;;;;12.70;73.65;100136.16;6216016;23;20149;-90
2022/11/14 07:56:36;;;;;;;21.93;10.80;;;;;;;12.79;73.74;100143.63;6215589;23;20562;-90
2022/11/14 07:59:02;;;;;;;18.70;9.57;;;;;;;12.84;74.08;100138.16;6215641;23;20241;-90
2022/11/14 08:01:27;;;;;;;18.37;9.53;;;;;;;12.90;74.57;100141.34;6190024;23;20170;-91
2022/11/14 08:03:52;;;;;;;24.37;10.23;;;;;;;12.89;72.95;100147.53;6214531;23;20643;-91
2022/11/14 08:06:18;;;;;;;17.90;9.30;;;;;;;12.90;72.54;100146.63;6215733;23;20143;-90
2022/11/14 08:08:44;;;;;;;18.83;9.13;;;;;;;12.93;72.29;100146.47;6189090;23;20170;-91
2022/11/14 08:11:10;;;;;;;23.77;10.60;;;;;;;13.05;71.60;100155.56;6215344;23;20147;-90
2022/11/14 08:13:35;;;;;;;20.50;10.63;;;;;;;13.10;71.06;100140.44;6191260;23;20575;-91
2022/11/14 08:16:05;;;;;;;25.10;10.23;;;;;;;13.13;71.59;100144.75;6191054;23;20188;-91
2022/11/14 08:18:31;;;;;;;28.50;10.30;;;;;;;13.19;71.97;100142.66;6217779;23;20568;-91
2022/11/14 08:20:56;;;;;;;23.83;10.30;;;;;;;13.28;71.11;100146.66;6217606;23;20147;-90
2022/11/14 08:23:22;;;;;;;26.93;11.53;;;;;;;13.35;70.76;100148.03;6217120;23;20160;-90
2022/11/14 08:25:47;;;;;;;22.30;10.13;;;;;;;13.48;70.55;100141.25;6190884;23;20159;-90
2022/11/14 08:28:13;;;;;;;21.93;10.70;;;;;;;13.54;70.51;100140.97;6190928;23;20529;-90
2022/11/14 08:30:38;;;;;;;23.23;10.73;;;;;;;13.63;70.67;100137.88;6190902;23;20244;-90
2022/11/14 08:33:05;;;;;;;21.50;10.90;;;;;;;13.76;70.72;100132.84;6190922;23;20193;-90
2022/11/14 08:35:32;;;;;;;23.63;10.13;;;;;;;13.82;70.62;100133.41;6190817;23;20199;-90
2022/11/14 08:38:00;;;;;;;27.07;10.93;;;;;;;13.94;69.51;100143.31;6190789;23;20178;-90
2022/11/14 08:40:25;;;;;;;23.47;10.03;;;;;;;13.92;68.86;100133.78;6190755;23;20160;-91
2022/11/14 08:42:51;;;;;;;26.40;10.83;;;;;;;13.98;69.65;100142.25;6217035;23;20621;-90
2022/11/14 08:45:16;;;;;;;21.50;9.90;;;;;;;14.08;68.69;100138.22;6190722;23;20161;-90
2022/11/14 08:47:42;;;;;;;22.97;11.03;;;;;;;14.18;68.60;100139.47;6190798;23;20172;-90
2022/11/14 08:50:07;;;;;;;25.47;12.30;;;;;;;14.29;67.77;100138.03;6216952;23;20569;-90
2022/11/14 08:52:33;;;;;;;23.73;10.60;;;;;;;14.35;67.72;100129.84;6216898;23;20149;-90
2022/11/14 08:54:58;;;;;;;23.47;10.97;;;;;;;14.38;68.05;100133.19;6190546;23;20161;-90
2022/11/14 08:57:24;;;;;;;28.33;10.67;;;;;;;14.48;67.24;100128.28;6216799;23;20149;-90
2022/11/14 08:59:49;;;;;;;23.20;11.27;;;;;;;14.55;66.81;100127.88;6190701;23;20196;-90
2022/11/14 09:02:15;;;;;;;21.40;9.60;;;;;;;14.60;66.81;100127.63;6190709;23;20488;-90
2022/11/14 09:04:40;;;;;;;24.57;11.53;;;;;;;14.72;67.32;100126.97;6215713;23;20162;-90
2022/11/14 09:07:06;;;;;;;19.57;9.97;;;;;;;14.91;66.80;100124.22;6216757;23;20232;-90
2022/11/14 09:09:32;;;;;;;20.53;9.37;;;;;;;15.05;65.94;100114.56;6191206;23;20183;-90
2022/11/14 09:11:57;;;;;;;22.77;9.37;;;;;;;15.10;65.31;100107.25;6191087;23;20453;-90
2022/11/14 09:14:23;;;;;;;20.33;10.33;;;;;;;15.11;64.23;100102.81;6216737;23;20209;-90
2022/11/14 09:16:48;;;;;;;20.40;9.20;;;;;;;15.11;64.28;100116.03;6191190;23;20196;-90
2022/11/14 09:19:14;;;;;;;19.97;9.10;;;;;;;15.22;64.02;100111.88;6216931;23;20530;-90
2022/11/14 09:21:39;;;;;;;23.53;9.63;;;;;;;15.32;62.92;100105.13;6215841;23;20190;-90
2022/11/14 09:24:05;;;;;;;15.33;7.57;;;;;;;15.43;63.06;100098.38;6216505;23;20573;-90
2022/11/14 09:26:32;;;;;;;17.90;9.03;;;;;;;15.53;62.73;100089.00;6190298;23;20240;-89
2022/11/14 09:28:59;;;;;;;20.13;9.10;;;;;;;15.62;63.86;100084.03;6215389;23;20578;-89
2022/11/14 09:31:25;;;;;;;16.77;8.20;;;;;;;15.78;63.80;100090.13;6190973;23;20162;-90
2022/11/14 09:33:50;;;;;;;17.63;7.27;;;;;;;16.02;63.75;100082.53;6190211;23;20166;-89
2022/11/14 09:36:17;;;;;;;14.63;7.00;;;;;;;16.11;62.62;100082.00;6215934;23;20610;-89
2022/11/14 09:38:43;;;;;;;15.27;8.20;;;;;;;16.13;61.51;100080.13;6215794;23;20191;-90
2022/11/14 09:41:19;;;;;;;16.83;8.00;;;;;;;16.06;60.85;100072.66;6215248;23;20159;-90
2022/11/14 09:44:03;;;;;;;14.87;7.43;;;;;;;15.89;61.28;100073.63;6216781;23;20146;-89
2022/11/14 09:47:02;;;;;;;19.17;8.50;;;;;;;16.06;61.78;100068.22;6216392;23;20149;-89
2022/11/14 09:49:39;;;;;;;18.63;7.83;;;;;;;16.28;61.89;100058.00;6184755;23;20160;-90
2022/11/14 09:52:31;;;;;;;16.03;7.87;;;;;;;16.56;61.34;100063.31;6191193;23;20532;-90
2022/11/14 09:55:20;;;;;;;14.17;7.17;;;;;;;16.72;59.49;100051.81;6190338;23;20163;-90
2022/11/14 09:57:46;;;;;;;17.60;7.60;;;;;;;16.71;60.24;100058.03;6216640;23;20137;-90
2022/11/14 10:00:13;;;;;;;16.70;8.83;;;;;;;16.82;59.83;100056.41;6216594;23;20631;-90
2022/11/14 10:02:47;;;;;;;16.97;8.93;;;;;;;16.88;60.02;100053.34;6216848;23;20252;-90
2022/11/14 10:05:38;;;;;;;19.37;8.23;;;;;;;17.08;59.71;100045.00;6216569;23;20140;-90
2022/11/14 10:08:39;;;;;;;15.30;7.10;;;;;;;17.27;58.85;100036.69;6216330;23;20550;-90
2022/11/14 10:11:19;;;;;;;15.27;7.23;;;;;;;17.48;57.65;100031.78;6214273;23;20166;-90
2022/11/14 10:13:51;;;;;;;14.53;7.83;;;;;;;17.37;56.97;100035.16;6189953;23;20212;-90
2022/11/14 10:16:32;;;;;;;13.23;7.47;;;;;;;17.67;56.73;100021.66;6216610;23;20209;-90
2022/11/14 10:18:58;;;;;;;16.97;8.23;;;;;;;17.80;55.28;100028.69;6189841;23;20228;-90
2022/11/14 10:21:52;;;;;;;16.63;7.53;;;;;;;17.98;54.88;100023.06;6190141;23;20196;-90
2022/11/14 10:24:42;;;;;;;16.53;8.03;;;;;;;18.03;54.93;100026.28;6189826;23;20149;-89
2022/11/14 10:27:23;;;;;;;11.77;6.03;;;;;;;18.23;54.99;100023.09;6190796;23;20433;-89
2022/11/14 10:30:02;;;;;;;17.93;8.00;;;;;;;18.42;53.72;100011.03;6190855;23;20150;-90
2022/11/14 10:32:37;;;;;;;18.10;8.60;;;;;;;18.53;52.54;100005.00;6215112;23;20142;-90
2022/11/14 10:35:19;;;;;;;20.97;9.23;;;;;;;18.56;52.55;99999.47;6190012;23;20165;-90
2022/11/14 10:38:06;;;;;;;15.93;8.30;;;;;;;18.58;53.12;99997.56;6189791;23;20235;-89
2022/11/14 10:40:45;;;;;;;14.57;6.43;;;;;;;18.74;53.18;99997.31;6190368;23;20622;-90
2022/11/14 10:43:24;;;;;;;16.93;8.60;;;;;;;18.96;51.77;99986.81;6190719;23;20142;-90
2022/11/14 10:45:56;;;;;;;18.80;8.40;;;;;;;19.14;51.32;99992.56;6190102;23;20138;-90
2022/11/14 10:48:32;;;;;;;17.47;7.53;;;;;;;19.06;51.19;99985.19;6189976;23;20162;-90
2022/11/14 10:51:07;;;;;;;17.20;7.33;;;;;;;19.22;51.21;99977.75;6215026;23;20143;-90
2022/11/14 10:54:13;;;;;;;13.77;7.60;;;;;;;19.30;51.00;99975.38;6216491;23;20164;-90
2022/11/14 10:56:50;;;;;;;13.03;7.30;;;;;;;19.43;50.11;99972.69;6216412;23;20166;-89
2022/11/14 10:59:16;;;;;;;18.37;7.33;;;;;;;19.66;49.57;99961.13;6190497;23;20557;-91
2022/11/14 11:01:45;;;;;;;13.97;6.50;;;;;;;19.81;49.81;99965.25;6215713;23;20161;-89
2022/11/14 11:04:19;;;;;;;15.40;7.47;;;;;;;19.89;49.21;99959.38;6190571;23;20166;-90
2022/11/14 11:06:45;;;;;;;14.90;6.93;;;;;;;19.84;48.30;99956.19;6214924;23;20533;-90
2022/11/14 11:12:07;;;;;;;17.00;7.83;;;;;;;20.12;47.56;99948.63;6216021;23;20157;-90
2022/11/14 11:14:33;;;;;;;13.83;6.50;;;;;;;20.10;48.56;99953.19;6190297;23;20463;-91
2022/11/14 11:17:11;;;;;;;13.60;6.93;;;;;;;20.10;46.72;99950.53;6215504;23;20197;-91
2022/11/14 11:19:41;;;;;;;12.57;6.63;;;;;;;20.16;47.58;99951.88;6216200;23;20146;-90
2022/11/14 11:22:35;;;;;;;13.20;6.73;;;;;;;20.30;47.00;99938.34;6216232;23;20296;-90
2022/11/14 11:25:02;;;;;;;16.27;7.50;;;;;;;19.98;47.16;99934.69;6216244;23;20153;-90